sensor_id;sensor_type;location;lat;lon;timestamp;temperature;humidity
66140;DHT22;52945;51.908;8.364;2024-02-21T00:01:52;11.00;73.80
66140;DHT22;52945;51.908;8.364;2024-02-21T00:04:53;10.90;73.70
66140;DHT22;52945;51.908;8.364;2024-02-21T00:07:53;11.00;73.80
66140;DHT22;52945;51.908;8.364;2024-02-21T00:10:54;10.90;73.70
66140;DHT22;52945;51.908;8.364;2024-02-21T00:13:55;11.00;73.80
66140;DHT22;52945;51.908;8.364;2024-02-21T00:16:55;11.00;73.70
66140;DHT22;52945;51.908;8.364;2024-02-21T00:19:56;11.00;73.60
66140;DHT22;52945;51.908;8.364;2024-02-21T00:22:56;11.00;73.60
66140;DHT22;52945;51.908;8.364;2024-02-21T00:25:57;10.90;73.50
66140;DHT22;52945;51.908;8.364;2024-02-21T00:28:57;10.90;73.50
66140;DHT22;52945;51.908;8.364;2024-02-21T00:31:58;11.00;73.40
66140;DHT22;52945;51.908;8.364;2024-02-21T00:34:58;11.00;73.40
66140;DHT22;52945;51.908;8.364;2024-02-21T00:37:59;10.90;73.20
66140;DHT22;52945;51.908;8.364;2024-02-21T00:41:00;10.90;73.40
66140;DHT22;52945;51.908;8.364;2024-02-21T00:44:00;11.00;73.30
66140;DHT22;52945;51.908;8.364;2024-02-21T00:47:01;10.90;73.20
66140;DHT22;52945;51.908;8.364;2024-02-21T00:50:01;10.90;73.10
66140;DHT22;52945;51.908;8.364;2024-02-21T00:53:02;10.90;73.30
66140;DHT22;52945;51.908;8.364;2024-02-21T00:56:03;10.90;73.10
66140;DHT22;52945;51.908;8.364;2024-02-21T00:59:03;10.90;73.00
66140;DHT22;52945;51.908;8.364;2024-02-21T01:02:04;10.90;73.10
66140;DHT22;52945;51.908;8.364;2024-02-21T01:05:04;11.00;73.00
66140;DHT22;52945;51.908;8.364;2024-02-21T01:08:05;10.90;72.80
66140;DHT22;52945;51.908;8.364;2024-02-21T01:11:06;10.90;73.00
66140;DHT22;52945;51.908;8.364;2024-02-21T01:14:06;10.90;73.00
66140;DHT22;52945;51.908;8.364;2024-02-21T01:17:07;11.00;72.90
66140;DHT22;52945;51.908;8.364;2024-02-21T01:20:08;11.00;73.00
66140;DHT22;52945;51.908;8.364;2024-02-21T01:23:08;11.00;73.00
66140;DHT22;52945;51.908;8.364;2024-02-21T01:26:09;11.00;72.90
66140;DHT22;52945;51.908;8.364;2024-02-21T01:29:13;10.90;72.80
66140;DHT22;52945;51.908;8.364;2024-02-21T01:32:13;11.00;72.90
66140;DHT22;52945;51.908;8.364;2024-02-21T01:35:14;11.00;73.00
66140;DHT22;52945;51.908;8.364;2024-02-21T01:38:15;11.00;73.00
66140;DHT22;52945;51.908;8.364;2024-02-21T01:41:15;10.90;73.00
66140;DHT22;52945;51.908;8.364;2024-02-21T01:44:16;11.00;72.90
66140;DHT22;52945;51.908;8.364;2024-02-21T01:47:17;10.90;72.90
66140;DHT22;52945;51.908;8.364;2024-02-21T01:50:18;11.00;72.70
66140;DHT22;52945;51.908;8.364;2024-02-21T01:53:25;11.00;72.80
66140;DHT22;52945;51.908;8.364;2024-02-21T01:56:25;11.00;72.60
66140;DHT22;52945;51.908;8.364;2024-02-21T01:59:26;11.00;72.50
66140;DHT22;52945;51.908;8.364;2024-02-21T02:02:27;11.00;72.60
66140;DHT22;52945;51.908;8.364;2024-02-21T02:05:28;11.00;72.50
66140;DHT22;52945;51.908;8.364;2024-02-21T02:08:29;10.90;72.50
66140;DHT22;52945;51.908;8.364;2024-02-21T02:11:32;11.00;72.60
66140;DHT22;52945;51.908;8.364;2024-02-21T02:14:32;11.00;72.60
66140;DHT22;52945;51.908;8.364;2024-02-21T02:17:33;11.00;72.60
66140;DHT22;52945;51.908;8.364;2024-02-21T02:20:34;10.90;72.60
66140;DHT22;52945;51.908;8.364;2024-02-21T02:23:35;11.00;72.70
66140;DHT22;52945;51.908;8.364;2024-02-21T02:26:35;11.00;72.80
66140;DHT22;52945;51.908;8.364;2024-02-21T02:29:36;11.00;72.60
66140;DHT22;52945;51.908;8.364;2024-02-21T02:32:37;11.00;72.60
66140;DHT22;52945;51.908;8.364;2024-02-21T02:35:37;11.00;72.60
66140;DHT22;52945;51.908;8.364;2024-02-21T02:38:38;11.00;72.60
66140;DHT22;52945;51.908;8.364;2024-02-21T02:41:38;11.00;72.60
66140;DHT22;52945;51.908;8.364;2024-02-21T02:44:39;11.00;72.50
66140;DHT22;52945;51.908;8.364;2024-02-21T02:47:40;11.00;72.30
66140;DHT22;52945;51.908;8.364;2024-02-21T02:50:40;11.00;72.40
66140;DHT22;52945;51.908;8.364;2024-02-21T02:53:41;11.00;72.50
66140;DHT22;52945;51.908;8.364;2024-02-21T02:56:41;11.00;72.50
66140;DHT22;52945;51.908;8.364;2024-02-21T02:59:42;11.00;72.40
66140;DHT22;52945;51.908;8.364;2024-02-21T03:02:45;11.00;72.40
66140;DHT22;52945;51.908;8.364;2024-02-21T03:05:46;11.00;72.10
66140;DHT22;52945;51.908;8.364;2024-02-21T03:08:47;11.00;72.30
66140;DHT22;52945;51.908;8.364;2024-02-21T03:11:49;11.00;72.10
66140;DHT22;52945;51.908;8.364;2024-02-21T03:14:50;10.90;72.00
66140;DHT22;52945;51.908;8.364;2024-02-21T03:17:51;11.00;72.10
66140;DHT22;52945;51.908;8.364;2024-02-21T03:20:51;11.00;72.10
66140;DHT22;52945;51.908;8.364;2024-02-21T03:23:52;11.10;71.90
66140;DHT22;52945;51.908;8.364;2024-02-21T03:26:52;11.00;71.70
66140;DHT22;52945;51.908;8.364;2024-02-21T03:29:53;11.00;71.90
66140;DHT22;52945;51.908;8.364;2024-02-21T03:32:53;11.10;71.90
66140;DHT22;52945;51.908;8.364;2024-02-21T03:35:54;11.00;72.00
66140;DHT22;52945;51.908;8.364;2024-02-21T03:38:55;10.90;72.00
66140;DHT22;52945;51.908;8.364;2024-02-21T03:41:56;11.00;71.80
66140;DHT22;52945;51.908;8.364;2024-02-21T03:44:56;11.00;71.80
66140;DHT22;52945;51.908;8.364;2024-02-21T03:47:57;11.00;72.00
66140;DHT22;52945;51.908;8.364;2024-02-21T03:50:58;11.00;72.00
66140;DHT22;52945;51.908;8.364;2024-02-21T03:53:59;11.00;71.80
66140;DHT22;52945;51.908;8.364;2024-02-21T03:56:59;11.00;72.00
66140;DHT22;52945;51.908;8.364;2024-02-21T04:00:00;11.00;71.90
66140;DHT22;52945;51.908;8.364;2024-02-21T04:03:00;10.90;71.50
66140;DHT22;52945;51.908;8.364;2024-02-21T04:06:01;11.00;71.80
66140;DHT22;52945;51.908;8.364;2024-02-21T04:09:02;11.00;71.90
66140;DHT22;52945;51.908;8.364;2024-02-21T04:12:03;10.90;71.70
66140;DHT22;52945;51.908;8.364;2024-02-21T04:15:04;10.90;71.50
66140;DHT22;52945;51.908;8.364;2024-02-21T04:18:04;11.00;71.70
66140;DHT22;52945;51.908;8.364;2024-02-21T04:21:05;11.00;71.60
66140;DHT22;52945;51.908;8.364;2024-02-21T04:24:06;10.90;71.50
66140;DHT22;52945;51.908;8.364;2024-02-21T04:27:06;11.00;71.50
66140;DHT22;52945;51.908;8.364;2024-02-21T04:30:08;11.00;71.50
66140;DHT22;52945;51.908;8.364;2024-02-21T04:33:09;11.00;71.60
66140;DHT22;52945;51.908;8.364;2024-02-21T04:36:10;10.90;71.60
66140;DHT22;52945;51.908;8.364;2024-02-21T04:39:11;11.00;71.60
66140;DHT22;52945;51.908;8.364;2024-02-21T04:42:12;11.00;71.70
66140;DHT22;52945;51.908;8.364;2024-02-21T04:45:13;11.00;71.60
66140;DHT22;52945;51.908;8.364;2024-02-21T04:48:13;11.00;71.60
66140;DHT22;52945;51.908;8.364;2024-02-21T04:51:14;11.00;71.60
66140;DHT22;52945;51.908;8.364;2024-02-21T04:54:14;11.00;71.70
66140;DHT22;52945;51.908;8.364;2024-02-21T04:57:15;11.00;71.50
66140;DHT22;52945;51.908;8.364;2024-02-21T05:00:17;11.00;71.70
66140;DHT22;52945;51.908;8.364;2024-02-21T05:03:18;11.00;71.70
66140;DHT22;52945;51.908;8.364;2024-02-21T05:06:18;11.00;71.70
66140;DHT22;52945;51.908;8.364;2024-02-21T05:09:19;11.00;71.60
66140;DHT22;52945;51.908;8.364;2024-02-21T05:12:19;11.00;71.50
66140;DHT22;52945;51.908;8.364;2024-02-21T05:15:20;11.00;71.50
66140;DHT22;52945;51.908;8.364;2024-02-21T05:18:21;10.90;71.80
66140;DHT22;52945;51.908;8.364;2024-02-21T05:21:22;11.00;71.90
66140;DHT22;52945;51.908;8.364;2024-02-21T05:24:24;11.00;72.10
66140;DHT22;52945;51.908;8.364;2024-02-21T05:27:24;11.00;72.30
66140;DHT22;52945;51.908;8.364;2024-02-21T05:30:25;10.90;72.50
66140;DHT22;52945;51.908;8.364;2024-02-21T05:33:25;11.00;72.60
66140;DHT22;52945;51.908;8.364;2024-02-21T05:36:27;10.90;72.60
66140;DHT22;52945;51.908;8.364;2024-02-21T05:39:28;10.90;72.70
66140;DHT22;52945;51.908;8.364;2024-02-21T05:42:30;10.90;72.70
66140;DHT22;52945;51.908;8.364;2024-02-21T05:45:31;10.80;72.90
66140;DHT22;52945;51.908;8.364;2024-02-21T05:48:31;10.90;73.00
66140;DHT22;52945;51.908;8.364;2024-02-21T05:51:33;10.90;72.90
66140;DHT22;52945;51.908;8.364;2024-02-21T05:54:34;10.80;72.90
66140;DHT22;52945;51.908;8.364;2024-02-21T05:57:37;10.90;72.90
66140;DHT22;52945;51.908;8.364;2024-02-21T06:00:38;10.80;72.90
66140;DHT22;52945;51.908;8.364;2024-02-21T06:03:38;10.90;73.00
66140;DHT22;52945;51.908;8.364;2024-02-21T06:06:39;10.80;72.90
66140;DHT22;52945;51.908;8.364;2024-02-21T06:09:39;10.80;72.90
66140;DHT22;52945;51.908;8.364;2024-02-21T06:12:40;10.70;72.90
66140;DHT22;52945;51.908;8.364;2024-02-21T06:15:40;10.80;72.90
66140;DHT22;52945;51.908;8.364;2024-02-21T06:18:42;10.80;72.70
66140;DHT22;52945;51.908;8.364;2024-02-21T06:21:43;10.90;72.60
66140;DHT22;52945;51.908;8.364;2024-02-21T06:24:44;10.80;72.50
66140;DHT22;52945;51.908;8.364;2024-02-21T06:27:44;10.90;72.40
66140;DHT22;52945;51.908;8.364;2024-02-21T06:30:45;10.90;72.20
66140;DHT22;52945;51.908;8.364;2024-02-21T06:33:45;10.90;71.90
66140;DHT22;52945;51.908;8.364;2024-02-21T06:36:46;10.90;72.00
66140;DHT22;52945;51.908;8.364;2024-02-21T06:39:48;10.90;71.60
66140;DHT22;52945;51.908;8.364;2024-02-21T06:42:49;10.90;71.40
66140;DHT22;52945;51.908;8.364;2024-02-21T06:45:50;10.90;71.10
66140;DHT22;52945;51.908;8.364;2024-02-21T06:48:51;10.90;71.10
66140;DHT22;52945;51.908;8.364;2024-02-21T06:51:52;10.90;71.10
66140;DHT22;52945;51.908;8.364;2024-02-21T06:54:52;10.90;71.00
66140;DHT22;52945;51.908;8.364;2024-02-21T06:57:53;10.80;70.90
66140;DHT22;52945;51.908;8.364;2024-02-21T07:00:53;10.90;70.60
66140;DHT22;52945;51.908;8.364;2024-02-21T07:03:54;10.90;70.70
66140;DHT22;52945;51.908;8.364;2024-02-21T07:06:54;10.80;70.50
66140;DHT22;52945;51.908;8.364;2024-02-21T07:09:55;10.90;70.60
66140;DHT22;52945;51.908;8.364;2024-02-21T07:12:55;10.90;70.30
66140;DHT22;52945;51.908;8.364;2024-02-21T07:15:56;10.90;70.40
66140;DHT22;52945;51.908;8.364;2024-02-21T07:18:57;10.90;70.30
66140;DHT22;52945;51.908;8.364;2024-02-21T07:21:58;10.90;70.40
66140;DHT22;52945;51.908;8.364;2024-02-21T07:24:59;10.90;70.40
66140;DHT22;52945;51.908;8.364;2024-02-21T07:27:59;10.90;70.50
66140;DHT22;52945;51.908;8.364;2024-02-21T07:31:00;11.00;70.50
66140;DHT22;52945;51.908;8.364;2024-02-21T07:34:00;10.90;70.20
66140;DHT22;52945;51.908;8.364;2024-02-21T07:37:01;10.90;70.20
66140;DHT22;52945;51.908;8.364;2024-02-21T07:40:02;11.00;70.40
66140;DHT22;52945;51.908;8.364;2024-02-21T07:43:03;11.00;70.20
66140;DHT22;52945;51.908;8.364;2024-02-21T07:46:03;10.90;70.10
66140;DHT22;52945;51.908;8.364;2024-02-21T07:49:04;11.00;70.10
66140;DHT22;52945;51.908;8.364;2024-02-21T07:52:05;11.00;69.80
66140;DHT22;52945;51.908;8.364;2024-02-21T07:55:06;11.10;69.60
66140;DHT22;52945;51.908;8.364;2024-02-21T07:58:06;11.10;69.80
66140;DHT22;52945;51.908;8.364;2024-02-21T08:01:08;11.10;69.50
66140;DHT22;52945;51.908;8.364;2024-02-21T08:04:09;11.10;69.30
66140;DHT22;52945;51.908;8.364;2024-02-21T08:07:09;11.10;68.90
66140;DHT22;52945;51.908;8.364;2024-02-21T08:10:10;11.10;69.00
66140;DHT22;52945;51.908;8.364;2024-02-21T08:13:11;11.10;68.80
66140;DHT22;52945;51.908;8.364;2024-02-21T08:16:13;11.20;69.00
66140;DHT22;52945;51.908;8.364;2024-02-21T08:19:13;11.20;69.10
66140;DHT22;52945;51.908;8.364;2024-02-21T08:22:14;11.20;69.00
66140;DHT22;52945;51.908;8.364;2024-02-21T08:25:15;11.20;68.80
66140;DHT22;52945;51.908;8.364;2024-02-21T08:28:15;11.20;68.40
66140;DHT22;52945;51.908;8.364;2024-02-21T08:31:19;11.20;68.30
66140;DHT22;52945;51.908;8.364;2024-02-21T08:34:20;11.30;68.60
66140;DHT22;52945;51.908;8.364;2024-02-21T08:37:21;11.40;68.40
66140;DHT22;52945;51.908;8.364;2024-02-21T08:40:23;11.50;68.20
66140;DHT22;52945;51.908;8.364;2024-02-21T08:43:23;11.60;67.80
66140;DHT22;52945;51.908;8.364;2024-02-21T08:46:24;11.70;67.40
66140;DHT22;52945;51.908;8.364;2024-02-21T08:49:25;11.80;66.90
66140;DHT22;52945;51.908;8.364;2024-02-21T08:52:28;11.80;66.60
66140;DHT22;52945;51.908;8.364;2024-02-21T08:55:29;11.80;65.90
66140;DHT22;52945;51.908;8.364;2024-02-21T08:58:29;11.80;66.10
66140;DHT22;52945;51.908;8.364;2024-02-21T09:01:30;11.90;66.50
66140;DHT22;52945;51.908;8.364;2024-02-21T09:04:31;11.90;66.20
66140;DHT22;52945;51.908;8.364;2024-02-21T09:07:31;11.90;66.20
66140;DHT22;52945;51.908;8.364;2024-02-21T09:10:32;11.80;65.70
66140;DHT22;52945;51.908;8.364;2024-02-21T09:13:32;11.90;65.70
66140;DHT22;52945;51.908;8.364;2024-02-21T09:16:33;11.90;65.90
66140;DHT22;52945;51.908;8.364;2024-02-21T09:19:35;11.90;65.80
66140;DHT22;52945;51.908;8.364;2024-02-21T09:22:36;11.90;65.70
66140;DHT22;52945;51.908;8.364;2024-02-21T09:25:37;12.00;65.50
66140;DHT22;52945;51.908;8.364;2024-02-21T09:28:39;12.00;65.00
66140;DHT22;52945;51.908;8.364;2024-02-21T09:31:39;12.10;65.30
66140;DHT22;52945;51.908;8.364;2024-02-21T09:34:40;12.00;65.20
66140;DHT22;52945;51.908;8.364;2024-02-21T09:37:40;12.00;65.40
66140;DHT22;52945;51.908;8.364;2024-02-21T09:40:41;12.10;65.30
66140;DHT22;52945;51.908;8.364;2024-02-21T09:43:43;12.20;65.40
66140;DHT22;52945;51.908;8.364;2024-02-21T09:46:56;12.20;65.30
66140;DHT22;52945;51.908;8.364;2024-02-21T09:49:58;12.10;65.20
66140;DHT22;52945;51.908;8.364;2024-02-21T09:53:00;12.20;65.10
66140;DHT22;52945;51.908;8.364;2024-02-21T09:56:03;12.20;64.30
66140;DHT22;52945;51.908;8.364;2024-02-21T09:59:05;12.20;64.20
66140;DHT22;52945;51.908;8.364;2024-02-21T10:02:07;12.20;64.10
66140;DHT22;52945;51.908;8.364;2024-02-21T10:05:08;12.20;64.00
66140;DHT22;52945;51.908;8.364;2024-02-21T10:08:14;12.20;63.80
66140;DHT22;52945;51.908;8.364;2024-02-21T10:11:22;12.20;63.50
66140;DHT22;52945;51.908;8.364;2024-02-21T10:14:23;12.30;63.80
66140;DHT22;52945;51.908;8.364;2024-02-21T10:17:24;12.30;64.40
66140;DHT22;52945;51.908;8.364;2024-02-21T10:20:24;12.30;64.10
66140;DHT22;52945;51.908;8.364;2024-02-21T10:23:25;12.40;64.30
66140;DHT22;52945;51.908;8.364;2024-02-21T10:26:26;12.30;63.80
66140;DHT22;52945;51.908;8.364;2024-02-21T10:29:26;12.30;63.90
66140;DHT22;52945;51.908;8.364;2024-02-21T10:32:27;12.40;63.70
66140;DHT22;52945;51.908;8.364;2024-02-21T10:35:32;12.30;63.40
66140;DHT22;52945;51.908;8.364;2024-02-21T10:38:33;12.30;63.80
66140;DHT22;52945;51.908;8.364;2024-02-21T10:41:34;12.30;63.40
66140;DHT22;52945;51.908;8.364;2024-02-21T10:44:38;12.20;63.50
66140;DHT22;52945;51.908;8.364;2024-02-21T10:47:39;12.20;64.10
66140;DHT22;52945;51.908;8.364;2024-02-21T10:57:22;12.20;64.80
66140;DHT22;52945;51.908;8.364;2024-02-21T11:00:23;12.20;65.00
66140;DHT22;52945;51.908;8.364;2024-02-21T11:03:30;12.20;64.80
66140;DHT22;52945;51.908;8.364;2024-02-21T11:06:35;12.20;65.20
66140;DHT22;52945;51.908;8.364;2024-02-21T11:09:36;12.10;65.40
66140;DHT22;52945;51.908;8.364;2024-02-21T11:12:37;12.20;65.40
66140;DHT22;52945;51.908;8.364;2024-02-21T11:15:38;12.20;65.30
66140;DHT22;52945;51.908;8.364;2024-02-21T11:18:38;12.20;65.10
66140;DHT22;52945;51.908;8.364;2024-02-21T11:21:39;12.20;65.30
66140;DHT22;52945;51.908;8.364;2024-02-21T11:24:41;12.20;65.30
66140;DHT22;52945;51.908;8.364;2024-02-21T11:27:46;12.30;65.50
66140;DHT22;52945;51.908;8.364;2024-02-21T11:30:46;12.30;65.40
66140;DHT22;52945;51.908;8.364;2024-02-21T11:33:47;12.40;65.50
66140;DHT22;52945;51.908;8.364;2024-02-21T11:36:49;12.30;65.30
66140;DHT22;52945;51.908;8.364;2024-02-21T11:39:57;12.40;65.30
66140;DHT22;52945;51.908;8.364;2024-02-21T11:42:59;12.40;65.50
66140;DHT22;52945;51.908;8.364;2024-02-21T11:46:00;12.40;65.50
66140;DHT22;52945;51.908;8.364;2024-02-21T11:49:01;12.40;65.40
66140;DHT22;52945;51.908;8.364;2024-02-21T11:52:04;12.40;65.10
66140;DHT22;52945;51.908;8.364;2024-02-21T11:55:05;12.30;64.80
66140;DHT22;52945;51.908;8.364;2024-02-21T11:58:08;12.30;65.30
66140;DHT22;52945;51.908;8.364;2024-02-21T12:01:09;12.30;65.70
66140;DHT22;52945;51.908;8.364;2024-02-21T12:04:10;12.30;65.70
66140;DHT22;52945;51.908;8.364;2024-02-21T12:07:11;12.40;66.00
66140;DHT22;52945;51.908;8.364;2024-02-21T12:10:12;12.30;65.70
66140;DHT22;52945;51.908;8.364;2024-02-21T12:13:13;12.30;66.20
66140;DHT22;52945;51.908;8.364;2024-02-21T12:16:16;12.20;65.60
66140;DHT22;52945;51.908;8.364;2024-02-21T12:19:18;12.20;66.00
66140;DHT22;52945;51.908;8.364;2024-02-21T12:22:19;12.30;66.40
66140;DHT22;52945;51.908;8.364;2024-02-21T12:25:21;12.20;66.00
66140;DHT22;52945;51.908;8.364;2024-02-21T12:28:26;12.20;66.00
66140;DHT22;52945;51.908;8.364;2024-02-21T12:31:27;12.20;66.10
66140;DHT22;52945;51.908;8.364;2024-02-21T12:34:28;12.20;66.00
66140;DHT22;52945;51.908;8.364;2024-02-21T12:37:32;12.20;66.20
66140;DHT22;52945;51.908;8.364;2024-02-21T12:40:33;12.30;66.30
66140;DHT22;52945;51.908;8.364;2024-02-21T12:43:33;12.30;66.00
66140;DHT22;52945;51.908;8.364;2024-02-21T12:46:35;12.40;65.80
66140;DHT22;52945;51.908;8.364;2024-02-21T12:49:35;12.40;65.80
66140;DHT22;52945;51.908;8.364;2024-02-21T12:52:36;12.40;65.70
66140;DHT22;52945;51.908;8.364;2024-02-21T12:55:36;12.40;65.50
66140;DHT22;52945;51.908;8.364;2024-02-21T12:58:39;12.40;65.70
66140;DHT22;52945;51.908;8.364;2024-02-21T13:01:39;12.50;64.90
66140;DHT22;52945;51.908;8.364;2024-02-21T13:04:40;12.40;64.80
66140;DHT22;52945;51.908;8.364;2024-02-21T13:07:41;12.40;64.20
66140;DHT22;52945;51.908;8.364;2024-02-21T13:10:43;12.30;64.30
66140;DHT22;52945;51.908;8.364;2024-02-21T13:13:44;12.30;64.20
66140;DHT22;52945;51.908;8.364;2024-02-21T13:16:45;12.40;63.90
66140;DHT22;52945;51.908;8.364;2024-02-21T13:19:45;12.30;64.00
66140;DHT22;52945;51.908;8.364;2024-02-21T13:22:46;12.30;64.20
66140;DHT22;52945;51.908;8.364;2024-02-21T13:25:46;12.40;63.90
66140;DHT22;52945;51.908;8.364;2024-02-21T13:28:47;12.30;63.80
66140;DHT22;52945;51.908;8.364;2024-02-21T13:31:48;12.40;63.70
66140;DHT22;52945;51.908;8.364;2024-02-21T13:34:50;12.40;64.20
66140;DHT22;52945;51.908;8.364;2024-02-21T13:37:52;12.40;63.70
66140;DHT22;52945;51.908;8.364;2024-02-21T13:40:53;12.50;63.80
66140;DHT22;52945;51.908;8.364;2024-02-21T13:43:54;12.50;63.50
66140;DHT22;52945;51.908;8.364;2024-02-21T13:46:54;12.50;63.10
66140;DHT22;52945;51.908;8.364;2024-02-21T13:49:55;12.50;62.50
66140;DHT22;52945;51.908;8.364;2024-02-21T13:52:56;12.50;62.50
66140;DHT22;52945;51.908;8.364;2024-02-21T13:55:58;12.40;62.00
66140;DHT22;52945;51.908;8.364;2024-02-21T13:58:59;12.30;61.90
66140;DHT22;52945;51.908;8.364;2024-02-21T14:02:00;12.40;62.10
66140;DHT22;52945;51.908;8.364;2024-02-21T14:05:00;12.50;62.40
66140;DHT22;52945;51.908;8.364;2024-02-21T14:08:01;12.50;62.30
66140;DHT22;52945;51.908;8.364;2024-02-21T14:11:01;12.50;61.80
66140;DHT22;52945;51.908;8.364;2024-02-21T14:14:02;12.40;61.50
66140;DHT22;52945;51.908;8.364;2024-02-21T14:17:03;12.50;62.00
66140;DHT22;52945;51.908;8.364;2024-02-21T14:20:05;12.50;62.10
66140;DHT22;52945;51.908;8.364;2024-02-21T14:23:06;12.50;61.80
66140;DHT22;52945;51.908;8.364;2024-02-21T14:26:06;12.60;61.80
66140;DHT22;52945;51.908;8.364;2024-02-21T14:29:07;12.60;61.70
66140;DHT22;52945;51.908;8.364;2024-02-21T14:32:07;12.70;61.60
66140;DHT22;52945;51.908;8.364;2024-02-21T14:35:10;12.70;60.60
66140;DHT22;52945;51.908;8.364;2024-02-21T14:38:10;12.70;60.80
66140;DHT22;52945;51.908;8.364;2024-02-21T14:41:11;12.70;60.80
66140;DHT22;52945;51.908;8.364;2024-02-21T14:44:14;12.70;60.90
66140;DHT22;52945;51.908;8.364;2024-02-21T14:47:15;12.70;60.60
66140;DHT22;52945;51.908;8.364;2024-02-21T14:50:16;12.70;61.00
66140;DHT22;52945;51.908;8.364;2024-02-21T14:53:16;12.70;60.60
66140;DHT22;52945;51.908;8.364;2024-02-21T14:56:17;12.70;60.60
66140;DHT22;52945;51.908;8.364;2024-02-21T14:59:18;12.70;60.60
66140;DHT22;52945;51.908;8.364;2024-02-21T15:02:18;12.70;60.70
66140;DHT22;52945;51.908;8.364;2024-02-21T15:05:19;12.60;59.90
66140;DHT22;52945;51.908;8.364;2024-02-21T15:08:20;12.70;60.00
66140;DHT22;52945;51.908;8.364;2024-02-21T15:11:20;12.70;60.20
66140;DHT22;52945;51.908;8.364;2024-02-21T15:14:22;12.70;60.30
66140;DHT22;52945;51.908;8.364;2024-02-21T15:17:23;12.70;60.10
66140;DHT22;52945;51.908;8.364;2024-02-21T15:20:23;12.70;60.20
66140;DHT22;52945;51.908;8.364;2024-02-21T15:23:24;12.70;60.30
66140;DHT22;52945;51.908;8.364;2024-02-21T15:26:25;12.70;60.40
66140;DHT22;52945;51.908;8.364;2024-02-21T15:29:25;12.70;59.90
66140;DHT22;52945;51.908;8.364;2024-02-21T15:32:26;12.70;60.40
66140;DHT22;52945;51.908;8.364;2024-02-21T15:35:28;12.70;59.30
66140;DHT22;52945;51.908;8.364;2024-02-21T15:38:28;12.60;59.50
66140;DHT22;52945;51.908;8.364;2024-02-21T15:41:29;12.60;59.70
66140;DHT22;52945;51.908;8.364;2024-02-21T15:44:30;12.60;60.20
66140;DHT22;52945;51.908;8.364;2024-02-21T15:47:31;12.70;60.20
66140;DHT22;52945;51.908;8.364;2024-02-21T15:50:31;12.70;60.30
66140;DHT22;52945;51.908;8.364;2024-02-21T15:53:32;12.60;60.10
66140;DHT22;52945;51.908;8.364;2024-02-21T15:56:32;12.60;60.00
66140;DHT22;52945;51.908;8.364;2024-02-21T15:59:33;12.60;60.20
66140;DHT22;52945;51.908;8.364;2024-02-21T16:02:34;12.50;60.40
66140;DHT22;52945;51.908;8.364;2024-02-21T16:05:34;12.60;60.30
66140;DHT22;52945;51.908;8.364;2024-02-21T16:08:36;12.50;59.90
66140;DHT22;52945;51.908;8.364;2024-02-21T16:11:40;12.50;59.80
66140;DHT22;52945;51.908;8.364;2024-02-21T16:14:41;12.40;59.70
66140;DHT22;52945;51.908;8.364;2024-02-21T16:17:42;12.40;60.20
66140;DHT22;52945;51.908;8.364;2024-02-21T16:20:43;12.40;59.80
66140;DHT22;52945;51.908;8.364;2024-02-21T16:23:43;12.40;59.90
66140;DHT22;52945;51.908;8.364;2024-02-21T16:26:44;12.40;60.10
66140;DHT22;52945;51.908;8.364;2024-02-21T16:29:45;12.40;60.00
66140;DHT22;52945;51.908;8.364;2024-02-21T16:32:45;12.50;60.10
66140;DHT22;52945;51.908;8.364;2024-02-21T16:35:46;12.50;60.20
66140;DHT22;52945;51.908;8.364;2024-02-21T16:38:47;12.40;60.10
66140;DHT22;52945;51.908;8.364;2024-02-21T16:41:47;12.50;60.30
66140;DHT22;52945;51.908;8.364;2024-02-21T16:44:49;12.50;60.10
66140;DHT22;52945;51.908;8.364;2024-02-21T16:47:51;12.40;60.20
66140;DHT22;52945;51.908;8.364;2024-02-21T16:50:51;12.40;60.40
66140;DHT22;52945;51.908;8.364;2024-02-21T16:53:52;12.40;60.20
66140;DHT22;52945;51.908;8.364;2024-02-21T16:56:52;12.40;60.30
66140;DHT22;52945;51.908;8.364;2024-02-21T16:59:53;12.40;60.30
66140;DHT22;52945;51.908;8.364;2024-02-21T17:02:53;12.30;59.90
66140;DHT22;52945;51.908;8.364;2024-02-21T17:05:54;12.30;60.20
66140;DHT22;52945;51.908;8.364;2024-02-21T17:08:56;12.30;59.90
66140;DHT22;52945;51.908;8.364;2024-02-21T17:11:57;12.20;59.90
66140;DHT22;52945;51.908;8.364;2024-02-21T17:14:58;12.20;59.90
66140;DHT22;52945;51.908;8.364;2024-02-21T17:17:59;12.20;59.60
66140;DHT22;52945;51.908;8.364;2024-02-21T17:21:01;12.20;59.90
66140;DHT22;52945;51.908;8.364;2024-02-21T17:24:02;12.20;59.00
66140;DHT22;52945;51.908;8.364;2024-02-21T17:27:02;12.30;59.20
66140;DHT22;52945;51.908;8.364;2024-02-21T17:30:05;12.20;58.30
66140;DHT22;52945;51.908;8.364;2024-02-21T17:33:06;12.20;58.00
66140;DHT22;52945;51.908;8.364;2024-02-21T17:36:10;12.20;57.60
66140;DHT22;52945;51.908;8.364;2024-02-21T17:39:10;12.20;57.80
66140;DHT22;52945;51.908;8.364;2024-02-21T17:42:11;12.20;56.80
66140;DHT22;52945;51.908;8.364;2024-02-21T17:45:11;12.20;56.80
66140;DHT22;52945;51.908;8.364;2024-02-21T17:48:12;12.20;56.20
66140;DHT22;52945;51.908;8.364;2024-02-21T17:51:13;12.20;55.50
66140;DHT22;52945;51.908;8.364;2024-02-21T17:54:13;12.20;55.20
66140;DHT22;52945;51.908;8.364;2024-02-21T17:57:14;12.30;55.60
66140;DHT22;52945;51.908;8.364;2024-02-21T18:00:16;12.30;55.50
66140;DHT22;52945;51.908;8.364;2024-02-21T18:03:16;12.20;55.10
66140;DHT22;52945;51.908;8.364;2024-02-21T18:06:17;12.30;55.90
66140;DHT22;52945;51.908;8.364;2024-02-21T18:09:19;12.30;56.40
66140;DHT22;52945;51.908;8.364;2024-02-21T18:12:20;12.20;56.60
66140;DHT22;52945;51.908;8.364;2024-02-21T18:15:20;12.20;56.90
66140;DHT22;52945;51.908;8.364;2024-02-21T18:18:21;12.20;57.30
66140;DHT22;52945;51.908;8.364;2024-02-21T18:21:22;12.20;58.10
66140;DHT22;52945;51.908;8.364;2024-02-21T18:24:23;12.20;58.50
66140;DHT22;52945;51.908;8.364;2024-02-21T18:27:23;12.20;58.70
66140;DHT22;52945;51.908;8.364;2024-02-21T18:30:24;12.00;58.10
66140;DHT22;52945;51.908;8.364;2024-02-21T18:33:25;12.10;58.70
66140;DHT22;52945;51.908;8.364;2024-02-21T18:36:25;12.10;59.10
66140;DHT22;52945;51.908;8.364;2024-02-21T18:39:26;12.10;58.50
66140;DHT22;52945;51.908;8.364;2024-02-21T18:42:27;12.00;58.50
66140;DHT22;52945;51.908;8.364;2024-02-21T18:45:27;12.00;58.50
66140;DHT22;52945;51.908;8.364;2024-02-21T18:48:28;12.00;58.80
66140;DHT22;52945;51.908;8.364;2024-02-21T18:51:29;12.00;58.60
66140;DHT22;52945;51.908;8.364;2024-02-21T18:54:30;12.00;58.20
66140;DHT22;52945;51.908;8.364;2024-02-21T18:57:30;11.90;58.10
66140;DHT22;52945;51.908;8.364;2024-02-21T19:00:32;11.90;58.20
66140;DHT22;52945;51.908;8.364;2024-02-21T19:03:33;11.90;58.50
66140;DHT22;52945;51.908;8.364;2024-02-21T19:06:33;11.90;58.40
66140;DHT22;52945;51.908;8.364;2024-02-21T19:09:34;11.90;58.90